sensor_id;sensor_type;location;lat;lon;timestamp;P1;durP1;ratioP1;P2;durP2;ratioP2
52480;SDS011;38393;52.404;13.532;2024-02-26T00:01:34;5.13;;;2.83;;
52480;SDS011;38393;52.404;13.532;2024-02-26T00:04:00;4.47;;;2.30;;
52480;SDS011;38393;52.404;13.532;2024-02-26T00:06:27;5.17;;;2.57;;
52480;SDS011;38393;52.404;13.532;2024-02-26T00:08:52;7.77;;;3.20;;
52480;SDS011;38393;52.404;13.532;2024-02-26T00:11:18;7.23;;;3.17;;
52480;SDS011;38393;52.404;13.532;2024-02-26T00:13:43;12.77;;;3.73;;
52480;SDS011;38393;52.404;13.532;2024-02-26T00:16:09;6.80;;;2.73;;
52480;SDS011;38393;52.404;13.532;2024-02-26T00:18:34;3.00;;;2.10;;
52480;SDS011;38393;52.404;13.532;2024-02-26T00:20:59;6.13;;;2.43;;
52480;SDS011;38393;52.404;13.532;2024-02-26T00:23:25;3.77;;;2.07;;
52480;SDS011;38393;52.404;13.532;2024-02-26T00:25:51;4.83;;;2.60;;
52480;SDS011;38393;52.404;13.532;2024-02-26T00:28:17;5.47;;;2.83;;
52480;SDS011;38393;52.404;13.532;2024-02-26T00:30:44;3.80;;;2.17;;
52480;SDS011;38393;52.404;13.532;2024-02-26T00:33:10;5.47;;;2.43;;
52480;SDS011;38393;52.404;13.532;2024-02-26T00:35:36;2.00;;;1.80;;
52480;SDS011;38393;52.404;13.532;2024-02-26T00:38:01;6.13;;;2.17;;
52480;SDS011;38393;52.404;13.532;2024-02-26T00:40:28;6.93;;;2.90;;
52480;SDS011;38393;52.404;13.532;2024-02-26T00:42:54;2.57;;;1.60;;
52480;SDS011;38393;52.404;13.532;2024-02-26T00:45:19;3.97;;;2.30;;
52480;SDS011;38393;52.404;13.532;2024-02-26T00:47:45;4.43;;;2.30;;
52480;SDS011;38393;52.404;13.532;2024-02-26T00:50:12;3.80;;;2.13;;
52480;SDS011;38393;52.404;13.532;2024-02-26T00:52:38;10.70;;;3.23;;
52480;SDS011;38393;52.404;13.532;2024-02-26T00:55:03;3.77;;;1.83;;
52480;SDS011;38393;52.404;13.532;2024-02-26T00:57:29;3.57;;;2.00;;
52480;SDS011;38393;52.404;13.532;2024-02-26T00:59:55;4.63;;;2.07;;
52480;SDS011;38393;52.404;13.532;2024-02-26T01:02:21;3.27;;;1.87;;
52480;SDS011;38393;52.404;13.532;2024-02-26T01:04:47;1.97;;;1.30;;
52480;SDS011;38393;52.404;13.532;2024-02-26T01:07:13;3.33;;;1.63;;
52480;SDS011;38393;52.404;13.532;2024-02-26T01:09:38;4.57;;;1.63;;
52480;SDS011;38393;52.404;13.532;2024-02-26T01:12:04;3.67;;;2.27;;
52480;SDS011;38393;52.404;13.532;2024-02-26T01:14:29;6.90;;;2.73;;
52480;SDS011;38393;52.404;13.532;2024-02-26T01:16:55;2.40;;;1.93;;
52480;SDS011;38393;52.404;13.532;2024-02-26T01:19:20;2.53;;;1.60;;
52480;SDS011;38393;52.404;13.532;2024-02-26T01:21:46;4.10;;;2.00;;
52480;SDS011;38393;52.404;13.532;2024-02-26T01:24:12;2.67;;;1.90;;
52480;SDS011;38393;52.404;13.532;2024-02-26T01:26:37;3.77;;;1.70;;
52480;SDS011;38393;52.404;13.532;2024-02-26T01:29:03;2.23;;;1.53;;
52480;SDS011;38393;52.404;13.532;2024-02-26T01:31:28;3.07;;;1.90;;
52480;SDS011;38393;52.404;13.532;2024-02-26T01:33:54;3.00;;;2.00;;
52480;SDS011;38393;52.404;13.532;2024-02-26T01:36:19;2.57;;;1.87;;
52480;SDS011;38393;52.404;13.532;2024-02-26T01:38:45;3.37;;;2.30;;
52480;SDS011;38393;52.404;13.532;2024-02-26T01:41:13;3.47;;;1.87;;
52480;SDS011;38393;52.404;13.532;2024-02-26T01:43:39;3.77;;;2.30;;
52480;SDS011;38393;52.404;13.532;2024-02-26T01:46:04;2.33;;;1.67;;
52480;SDS011;38393;52.404;13.532;2024-02-26T01:48:30;3.33;;;1.47;;
52480;SDS011;38393;52.404;13.532;2024-02-26T01:50:55;4.23;;;1.60;;
52480;SDS011;38393;52.404;13.532;2024-02-26T01:53:22;2.47;;;1.53;;
52480;SDS011;38393;52.404;13.532;2024-02-26T01:55:48;2.20;;;1.53;;
52480;SDS011;38393;52.404;13.532;2024-02-26T01:58:13;3.67;;;1.97;;
52480;SDS011;38393;52.404;13.532;2024-02-26T02:00:39;5.63;;;1.70;;
52480;SDS011;38393;52.404;13.532;2024-02-26T02:03:04;2.53;;;1.60;;
52480;SDS011;38393;52.404;13.532;2024-02-26T02:05:30;1.97;;;1.67;;
52480;SDS011;38393;52.404;13.532;2024-02-26T02:07:57;3.33;;;2.03;;
52480;SDS011;38393;52.404;13.532;2024-02-26T02:10:24;1.97;;;1.17;;
52480;SDS011;38393;52.404;13.532;2024-02-26T02:12:51;5.80;;;2.27;;
52480;SDS011;38393;52.404;13.532;2024-02-26T02:15:17;2.47;;;1.57;;
52480;SDS011;38393;52.404;13.532;2024-02-26T02:17:42;2.60;;;1.70;;
52480;SDS011;38393;52.404;13.532;2024-02-26T02:20:17;4.27;;;2.30;;
52480;SDS011;38393;52.404;13.532;2024-02-26T02:22:46;3.47;;;1.93;;
52480;SDS011;38393;52.404;13.532;2024-02-26T02:25:11;5.40;;;1.90;;
52480;SDS011;38393;52.404;13.532;2024-02-26T02:27:37;2.77;;;1.60;;
52480;SDS011;38393;52.404;13.532;2024-02-26T02:30:03;2.33;;;1.67;;
52480;SDS011;38393;52.404;13.532;2024-02-26T02:32:29;4.17;;;1.70;;
52480;SDS011;38393;52.404;13.532;2024-02-26T02:34:56;3.30;;;1.80;;
52480;SDS011;38393;52.404;13.532;2024-02-26T02:37:21;1.53;;;1.23;;
52480;SDS011;38393;52.404;13.532;2024-02-26T02:39:47;1.47;;;1.37;;
52480;SDS011;38393;52.404;13.532;2024-02-26T02:42:12;1.97;;;1.50;;
52480;SDS011;38393;52.404;13.532;2024-02-26T02:44:38;3.70;;;1.90;;
52480;SDS011;38393;52.404;13.532;2024-02-26T02:47:03;2.17;;;1.60;;
52480;SDS011;38393;52.404;13.532;2024-02-26T02:49:29;2.60;;;1.30;;
52480;SDS011;38393;52.404;13.532;2024-02-26T02:51:54;4.63;;;2.10;;
52480;SDS011;38393;52.404;13.532;2024-02-26T02:54:22;2.70;;;1.43;;
52480;SDS011;38393;52.404;13.532;2024-02-26T02:56:47;2.07;;;1.30;;
52480;SDS011;38393;52.404;13.532;2024-02-26T02:59:13;3.17;;;1.57;;
52480;SDS011;38393;52.404;13.532;2024-02-26T03:01:38;2.83;;;1.97;;
52480;SDS011;38393;52.404;13.532;2024-02-26T03:04:04;3.80;;;1.87;;
52480;SDS011;38393;52.404;13.532;2024-02-26T03:06:29;2.63;;;1.47;;
52480;SDS011;38393;52.404;13.532;2024-02-26T03:08:55;2.77;;;1.63;;
52480;SDS011;38393;52.404;13.532;2024-02-26T03:11:20;1.33;;;0.97;;
52480;SDS011;38393;52.404;13.532;2024-02-26T03:13:46;2.13;;;1.43;;
52480;SDS011;38393;52.404;13.532;2024-02-26T03:16:11;2.50;;;1.67;;
52480;SDS011;38393;52.404;13.532;2024-02-26T03:18:40;1.23;;;1.10;;
52480;SDS011;38393;52.404;13.532;2024-02-26T03:21:06;1.80;;;1.10;;
52480;SDS011;38393;52.404;13.532;2024-02-26T03:23:31;1.50;;;0.83;;
52480;SDS011;38393;52.404;13.532;2024-02-26T03:26:01;2.40;;;1.53;;
52480;SDS011;38393;52.404;13.532;2024-02-26T03:28:27;0.90;;;0.90;;
52480;SDS011;38393;52.404;13.532;2024-02-26T03:30:52;2.70;;;1.90;;
52480;SDS011;38393;52.404;13.532;2024-02-26T03:33:18;3.37;;;1.40;;
52480;SDS011;38393;52.404;13.532;2024-02-26T03:35:43;2.53;;;1.37;;
52480;SDS011;38393;52.404;13.532;2024-02-26T03:38:09;1.23;;;1.10;;
52480;SDS011;38393;52.404;13.532;2024-02-26T03:40:34;2.50;;;1.53;;
52480;SDS011;38393;52.404;13.532;2024-02-26T03:43:00;2.37;;;1.30;;
52480;SDS011;38393;52.404;13.532;2024-02-26T03:45:25;0.83;;;0.80;;
52480;SDS011;38393;52.404;13.532;2024-02-26T03:47:51;2.50;;;1.60;;
52480;SDS011;38393;52.404;13.532;2024-02-26T03:50:16;3.23;;;2.00;;
52480;SDS011;38393;52.404;13.532;2024-02-26T03:52:42;2.43;;;1.90;;
52480;SDS011;38393;52.404;13.532;2024-02-26T03:55:07;2.03;;;1.57;;
52480;SDS011;38393;52.404;13.532;2024-02-26T03:57:33;3.13;;;1.60;;
52480;SDS011;38393;52.404;13.532;2024-02-26T03:59:58;3.73;;;2.00;;
52480;SDS011;38393;52.404;13.532;2024-02-26T04:02:24;2.80;;;1.53;;
52480;SDS011;38393;52.404;13.532;2024-02-26T04:04:50;1.90;;;1.10;;
52480;SDS011;38393;52.404;13.532;2024-02-26T04:07:16;1.73;;;1.50;;
52480;SDS011;38393;52.404;13.532;2024-02-26T04:09:41;1.80;;;1.50;;
52480;SDS011;38393;52.404;13.532;2024-02-26T04:12:08;1.63;;;1.03;;
52480;SDS011;38393;52.404;13.532;2024-02-26T04:14:35;1.97;;;1.50;;
52480;SDS011;38393;52.404;13.532;2024-02-26T04:17:01;2.07;;;1.17;;
52480;SDS011;38393;52.404;13.532;2024-02-26T04:19:26;2.67;;;1.53;;
52480;SDS011;38393;52.404;13.532;2024-02-26T04:21:52;3.87;;;1.47;;
52480;SDS011;38393;52.404;13.532;2024-02-26T04:24:17;2.57;;;1.40;;
52480;SDS011;38393;52.404;13.532;2024-02-26T04:26:43;3.03;;;1.57;;
52480;SDS011;38393;52.404;13.532;2024-02-26T04:29:08;3.23;;;1.83;;
52480;SDS011;38393;52.404;13.532;2024-02-26T04:31:34;4.77;;;1.77;;
52480;SDS011;38393;52.404;13.532;2024-02-26T04:33:59;2.60;;;1.60;;
52480;SDS011;38393;52.404;13.532;2024-02-26T04:36:25;2.27;;;1.30;;
52480;SDS011;38393;52.404;13.532;2024-02-26T04:38:53;3.53;;;1.70;;
52480;SDS011;38393;52.404;13.532;2024-02-26T04:41:21;1.70;;;1.23;;
52480;SDS011;38393;52.404;13.532;2024-02-26T04:43:47;1.20;;;1.00;;
52480;SDS011;38393;52.404;13.532;2024-02-26T04:46:12;2.10;;;1.53;;
52480;SDS011;38393;52.404;13.532;2024-02-26T04:48:38;4.87;;;2.60;;
52480;SDS011;38393;52.404;13.532;2024-02-26T04:51:04;2.47;;;1.50;;
52480;SDS011;38393;52.404;13.532;2024-02-26T04:53:29;3.60;;;1.40;;
52480;SDS011;38393;52.404;13.532;2024-02-26T04:55:55;1.50;;;1.40;;
52480;SDS011;38393;52.404;13.532;2024-02-26T04:58:20;2.03;;;1.30;;
52480;SDS011;38393;52.404;13.532;2024-02-26T05:00:46;2.63;;;1.80;;
52480;SDS011;38393;52.404;13.532;2024-02-26T05:03:11;2.33;;;1.33;;
52480;SDS011;38393;52.404;13.532;2024-02-26T05:05:38;2.90;;;1.80;;
52480;SDS011;38393;52.404;13.532;2024-02-26T05:08:04;3.93;;;1.63;;
52480;SDS011;38393;52.404;13.532;2024-02-26T05:10:30;1.90;;;1.43;;
52480;SDS011;38393;52.404;13.532;2024-02-26T05:12:56;3.83;;;2.13;;
52480;SDS011;38393;52.404;13.532;2024-02-26T05:15:22;1.97;;;1.33;;
52480;SDS011;38393;52.404;13.532;2024-02-26T05:17:47;2.93;;;1.80;;
52480;SDS011;38393;52.404;13.532;2024-02-26T05:20:13;2.80;;;1.50;;
52480;SDS011;38393;52.404;13.532;2024-02-26T05:22:38;1.70;;;1.37;;
52480;SDS011;38393;52.404;13.532;2024-02-26T05:25:04;5.20;;;2.40;;
52480;SDS011;38393;52.404;13.532;2024-02-26T05:27:29;6.10;;;1.57;;
52480;SDS011;38393;52.404;13.532;2024-02-26T05:29:55;2.73;;;1.77;;
52480;SDS011;38393;52.404;13.532;2024-02-26T05:32:21;2.37;;;1.43;;
52480;SDS011;38393;52.404;13.532;2024-02-26T05:34:46;2.40;;;1.73;;
52480;SDS011;38393;52.404;13.532;2024-02-26T05:37:12;2.73;;;1.87;;
52480;SDS011;38393;52.404;13.532;2024-02-26T05:39:37;2.00;;;1.40;;
52480;SDS011;38393;52.404;13.532;2024-02-26T05:42:04;6.10;;;2.10;;
52480;SDS011;38393;52.404;13.532;2024-02-26T05:44:30;2.07;;;1.40;;
52480;SDS011;38393;52.404;13.532;2024-02-26T05:46:55;2.83;;;2.03;;
52480;SDS011;38393;52.404;13.532;2024-02-26T05:49:21;3.70;;;1.80;;
52480;SDS011;38393;52.404;13.532;2024-02-26T05:51:47;4.83;;;2.20;;
52480;SDS011;38393;52.404;13.532;2024-02-26T05:54:13;3.27;;;1.80;;
52480;SDS011;38393;52.404;13.532;2024-02-26T05:56:38;2.37;;;1.47;;
52480;SDS011;38393;52.404;13.532;2024-02-26T05:59:04;4.17;;;1.90;;
52480;SDS011;38393;52.404;13.532;2024-02-26T06:01:30;3.47;;;1.87;;
52480;SDS011;38393;52.404;13.532;2024-02-26T06:03:55;3.87;;;1.50;;
52480;SDS011;38393;52.404;13.532;2024-02-26T06:06:21;2.67;;;1.43;;
52480;SDS011;38393;52.404;13.532;2024-02-26T06:08:48;3.67;;;2.50;;
52480;SDS011;38393;52.404;13.532;2024-02-26T06:11:14;2.40;;;1.40;;
52480;SDS011;38393;52.404;13.532;2024-02-26T06:13:39;3.90;;;1.77;;
52480;SDS011;38393;52.404;13.532;2024-02-26T06:16:05;3.40;;;1.67;;
52480;SDS011;38393;52.404;13.532;2024-02-26T06:18:30;7.10;;;2.47;;
52480;SDS011;38393;52.404;13.532;2024-02-26T06:20:56;4.07;;;1.20;;
52480;SDS011;38393;52.404;13.532;2024-02-26T06:23:21;3.40;;;2.17;;
52480;SDS011;38393;52.404;13.532;2024-02-26T06:25:47;2.53;;;1.47;;
52480;SDS011;38393;52.404;13.532;2024-02-26T06:28:13;3.30;;;1.90;;
52480;SDS011;38393;52.404;13.532;2024-02-26T06:30:38;4.90;;;2.47;;
52480;SDS011;38393;52.404;13.532;2024-02-26T06:33:04;4.47;;;2.00;;
52480;SDS011;38393;52.404;13.532;2024-02-26T06:35:30;2.40;;;1.77;;
52480;SDS011;38393;52.404;13.532;2024-02-26T06:37:55;4.00;;;1.97;;
52480;SDS011;38393;52.404;13.532;2024-02-26T06:40:21;3.27;;;1.97;;
52480;SDS011;38393;52.404;13.532;2024-02-26T06:42:46;3.07;;;1.90;;
52480;SDS011;38393;52.404;13.532;2024-02-26T06:45:12;4.57;;;2.23;;
52480;SDS011;38393;52.404;13.532;2024-02-26T06:47:37;6.93;;;2.77;;
52480;SDS011;38393;52.404;13.532;2024-02-26T06:50:03;3.97;;;1.97;;
52480;SDS011;38393;52.404;13.532;2024-02-26T06:52:29;9.20;;;2.50;;
52480;SDS011;38393;52.404;13.532;2024-02-26T06:54:54;3.93;;;2.37;;
52480;SDS011;38393;52.404;13.532;2024-02-26T06:57:20;4.67;;;2.40;;
52480;SDS011;38393;52.404;13.532;2024-02-26T06:59:46;3.03;;;2.00;;
52480;SDS011;38393;52.404;13.532;2024-02-26T07:02:12;11.40;;;3.10;;
52480;SDS011;38393;52.404;13.532;2024-02-26T07:04:41;6.13;;;3.30;;
52480;SDS011;38393;52.404;13.532;2024-02-26T07:07:07;6.40;;;1.97;;
52480;SDS011;38393;52.404;13.532;2024-02-26T07:09:33;4.80;;;2.37;;
52480;SDS011;38393;52.404;13.532;2024-02-26T07:11:58;4.77;;;2.63;;
52480;SDS011;38393;52.404;13.532;2024-02-26T07:14:24;5.00;;;2.47;;
52480;SDS011;38393;52.404;13.532;2024-02-26T07:16:50;6.33;;;3.13;;
52480;SDS011;38393;52.404;13.532;2024-02-26T07:19:15;6.77;;;2.90;;
52480;SDS011;38393;52.404;13.532;2024-02-26T07:21:41;7.47;;;3.13;;
52480;SDS011;38393;52.404;13.532;2024-02-26T07:24:06;11.43;;;3.73;;
52480;SDS011;38393;52.404;13.532;2024-02-26T07:26:32;6.27;;;3.33;;
52480;SDS011;38393;52.404;13.532;2024-02-26T07:28:57;9.43;;;3.23;;
52480;SDS011;38393;52.404;13.532;2024-02-26T07:31:23;8.07;;;2.80;;
52480;SDS011;38393;52.404;13.532;2024-02-26T07:33:48;14.77;;;3.80;;
52480;SDS011;38393;52.404;13.532;2024-02-26T07:36:14;8.50;;;3.73;;
52480;SDS011;38393;52.404;13.532;2024-02-26T07:38:39;6.97;;;2.77;;
52480;SDS011;38393;52.404;13.532;2024-02-26T07:41:05;6.23;;;3.27;;
52480;SDS011;38393;52.404;13.532;2024-02-26T07:43:30;7.30;;;2.97;;
52480;SDS011;38393;52.404;13.532;2024-02-26T07:45:56;7.13;;;3.33;;
52480;SDS011;38393;52.404;13.532;2024-02-26T07:48:22;7.80;;;2.77;;
52480;SDS011;38393;52.404;13.532;2024-02-26T07:50:48;9.97;;;3.50;;
52480;SDS011;38393;52.404;13.532;2024-02-26T07:53:13;6.10;;;3.17;;
52480;SDS011;38393;52.404;13.532;2024-02-26T07:55:39;5.57;;;2.90;;
52480;SDS011;38393;52.404;13.532;2024-02-26T07:58:04;5.47;;;2.47;;
52480;SDS011;38393;52.404;13.532;2024-02-26T08:00:30;5.73;;;2.80;;
52480;SDS011;38393;52.404;13.532;2024-02-26T08:02:55;9.07;;;3.60;;
52480;SDS011;38393;52.404;13.532;2024-02-26T08:05:20;8.10;;;3.60;;
52480;SDS011;38393;52.404;13.532;2024-02-26T08:07:46;8.53;;;3.70;;
52480;SDS011;38393;52.404;13.532;2024-02-26T08:10:11;9.73;;;3.33;;
52480;SDS011;38393;52.404;13.532;2024-02-26T08:12:37;9.13;;;3.40;;
52480;SDS011;38393;52.404;13.532;2024-02-26T08:15:03;7.97;;;3.23;;
52480;SDS011;38393;52.404;13.532;2024-02-26T08:17:29;7.77;;;2.90;;
52480;SDS011;38393;52.404;13.532;2024-02-26T08:19:55;8.20;;;3.17;;
52480;SDS011;38393;52.404;13.532;2024-02-26T08:22:21;9.07;;;4.40;;
52480;SDS011;38393;52.404;13.532;2024-02-26T08:24:46;8.93;;;3.63;;
52480;SDS011;38393;52.404;13.532;2024-02-26T08:27:12;9.00;;;4.20;;
52480;SDS011;38393;52.404;13.532;2024-02-26T08:29:37;7.37;;;3.57;;
52480;SDS011;38393;52.404;13.532;2024-02-26T08:32:03;8.23;;;3.67;;
52480;SDS011;38393;52.404;13.532;2024-02-26T08:34:28;8.27;;;3.73;;
52480;SDS011;38393;52.404;13.532;2024-02-26T08:36:54;7.47;;;3.80;;
52480;SDS011;38393;52.404;13.532;2024-02-26T08:39:19;7.20;;;3.37;;
52480;SDS011;38393;52.404;13.532;2024-02-26T08:41:45;9.33;;;3.60;;
52480;SDS011;38393;52.404;13.532;2024-02-26T08:44:11;9.73;;;3.80;;
52480;SDS011;38393;52.404;13.532;2024-02-26T08:46:36;6.53;;;3.33;;
52480;SDS011;38393;52.404;13.532;2024-02-26T08:49:02;8.67;;;3.63;;
52480;SDS011;38393;52.404;13.532;2024-02-26T08:51:27;5.27;;;3.20;;
52480;SDS011;38393;52.404;13.532;2024-02-26T08:53:54;7.90;;;3.70;;
52480;SDS011;38393;52.404;13.532;2024-02-26T08:56:19;10.00;;;4.10;;
52480;SDS011;38393;52.404;13.532;2024-02-26T08:58:46;10.60;;;4.10;;
52480;SDS011;38393;52.404;13.532;2024-02-26T09:01:13;5.80;;;3.40;;
52480;SDS011;38393;52.404;13.532;2024-02-26T09:03:39;8.87;;;4.10;;
52480;SDS011;38393;52.404;13.532;2024-02-26T09:06:05;8.03;;;3.87;;
52480;SDS011;38393;52.404;13.532;2024-02-26T09:08:31;8.13;;;4.00;;
52480;SDS011;38393;52.404;13.532;2024-02-26T09:10:57;10.40;;;3.50;;
52480;SDS011;38393;52.404;13.532;2024-02-26T09:13:22;9.13;;;4.13;;
52480;SDS011;38393;52.404;13.532;2024-02-26T09:15:48;6.83;;;3.27;;
52480;SDS011;38393;52.404;13.532;2024-02-26T09:18:14;10.77;;;4.23;;
52480;SDS011;38393;52.404;13.532;2024-02-26T09:20:40;6.93;;;3.57;;
52480;SDS011;38393;52.404;13.532;2024-02-26T09:23:06;8.30;;;3.97;;
52480;SDS011;38393;52.404;13.532;2024-02-26T09:25:31;9.50;;;3.90;;
52480;SDS011;38393;52.404;13.532;2024-02-26T09:27:58;11.13;;;4.60;;
52480;SDS011;38393;52.404;13.532;2024-02-26T09:30:24;7.50;;;3.70;;
52480;SDS011;38393;52.404;13.532;2024-02-26T09:32:49;7.13;;;3.27;;
52480;SDS011;38393;52.404;13.532;2024-02-26T09:35:15;7.87;;;4.07;;
52480;SDS011;38393;52.404;13.532;2024-02-26T09:37:40;10.13;;;4.20;;
52480;SDS011;38393;52.404;13.532;2024-02-26T09:40:07;9.53;;;4.03;;
52480;SDS011;38393;52.404;13.532;2024-02-26T09:42:36;8.77;;;3.57;;
52480;SDS011;38393;52.404;13.532;2024-02-26T09:45:02;10.63;;;4.10;;
52480;SDS011;38393;52.404;13.532;2024-02-26T09:47:33;9.97;;;4.27;;
52480;SDS011;38393;52.404;13.532;2024-02-26T09:50:00;8.53;;;4.40;;
52480;SDS011;38393;52.404;13.532;2024-02-26T09:52:27;10.53;;;4.27;;
52480;SDS011;38393;52.404;13.532;2024-02-26T09:54:55;7.90;;;3.47;;
52480;SDS011;38393;52.404;13.532;2024-02-26T09:57:21;7.47;;;3.57;;
52480;SDS011;38393;52.404;13.532;2024-02-26T09:59:49;5.60;;;2.67;;
52480;SDS011;38393;52.404;13.532;2024-02-26T10:02:18;8.93;;;4.30;;
52480;SDS011;38393;52.404;13.532;2024-02-26T10:04:45;9.70;;;4.33;;
52480;SDS011;38393;52.404;13.532;2024-02-26T10:07:12;7.17;;;4.00;;
52480;SDS011;38393;52.404;13.532;2024-02-26T10:09:38;8.67;;;3.50;;
52480;SDS011;38393;52.404;13.532;2024-02-26T10:12:04;7.97;;;4.03;;
52480;SDS011;38393;52.404;13.532;2024-02-26T10:14:33;8.63;;;3.70;;
52480;SDS011;38393;52.404;13.532;2024-02-26T10:16:59;7.57;;;3.00;;
52480;SDS011;38393;52.404;13.532;2024-02-26T10:19:28;7.57;;;3.40;;
52480;SDS011;38393;52.404;13.532;2024-02-26T10:21:58;9.30;;;4.30;;
52480;SDS011;38393;52.404;13.532;2024-02-26T10:24:25;8.20;;;4.27;;
52480;SDS011;38393;52.404;13.532;2024-02-26T10:26:51;12.97;;;5.93;;
52480;SDS011;38393;52.404;13.532;2024-02-26T10:29:18;11.50;;;4.27;;
52480;SDS011;38393;52.404;13.532;2024-02-26T10:31:44;8.37;;;3.70;;
52480;SDS011;38393;52.404;13.532;2024-02-26T10:34:10;8.80;;;4.43;;
52480;SDS011;38393;52.404;13.532;2024-02-26T10:36:35;8.83;;;4.00;;
52480;SDS011;38393;52.404;13.532;2024-02-26T10:39:02;8.67;;;3.70;;
52480;SDS011;38393;52.404;13.532;2024-02-26T10:41:29;7.77;;;3.43;;
52480;SDS011;38393;52.404;13.532;2024-02-26T10:43:55;7.43;;;3.10;;
52480;SDS011;38393;52.404;13.532;2024-02-26T10:46:20;6.30;;;3.50;;
52480;SDS011;38393;52.404;13.532;2024-02-26T10:48:49;7.87;;;3.30;;
52480;SDS011;38393;52.404;13.532;2024-02-26T10:51:16;9.47;;;3.47;;
52480;SDS011;38393;52.404;13.532;2024-02-26T10:53:45;7.30;;;3.13;;
52480;SDS011;38393;52.404;13.532;2024-02-26T10:56:14;6.23;;;3.20;;
52480;SDS011;38393;52.404;13.532;2024-02-26T10:58:42;6.73;;;3.10;;
52480;SDS011;38393;52.404;13.532;2024-02-26T11:01:10;6.07;;;2.97;;
52480;SDS011;38393;52.404;13.532;2024-02-26T11:03:37;4.77;;;2.70;;
52480;SDS011;38393;52.404;13.532;2024-02-26T11:06:04;7.60;;;3.40;;
52480;SDS011;38393;52.404;13.532;2024-02-26T11:08:30;6.73;;;3.07;;
52480;SDS011;38393;52.404;13.532;2024-02-26T11:10:57;5.43;;;2.73;;
52480;SDS011;38393;52.404;13.532;2024-02-26T11:13:23;8.07;;;3.07;;
52480;SDS011;38393;52.404;13.532;2024-02-26T11:15:55;7.43;;;3.47;;
52480;SDS011;38393;52.404;13.532;2024-02-26T11:18:22;3.67;;;2.30;;
52480;SDS011;38393;52.404;13.532;2024-02-26T11:20:50;7.00;;;3.00;;
52480;SDS011;38393;52.404;13.532;2024-02-26T11:23:17;4.90;;;2.70;;
52480;SDS011;38393;52.404;13.532;2024-02-26T11:25:42;6.40;;;2.73;;
52480;SDS011;38393;52.404;13.532;2024-02-26T11:28:09;4.23;;;2.83;;
52480;SDS011;38393;52.404;13.532;2024-02-26T11:30:39;3.30;;;2.27;;
52480;SDS011;38393;52.404;13.532;2024-02-26T11:33:08;4.80;;;2.47;;
52480;SDS011;38393;52.404;13.532;2024-02-26T11:35:36;5.07;;;2.43;;
52480;SDS011;38393;52.404;13.532;2024-02-26T11:38:01;4.97;;;2.50;;
52480;SDS011;38393;52.404;13.532;2024-02-26T11:40:27;5.37;;;2.70;;
52480;SDS011;38393;52.404;13.532;2024-02-26T11:42:53;7.73;;;2.67;;
52480;SDS011;38393;52.404;13.532;2024-02-26T11:45:53;4.50;;;2.33;;
52480;SDS011;38393;52.404;13.532;2024-02-26T11:48:12;3.70;;;2.30;;
52480;SDS011;38393;52.404;13.532;2024-02-26T11:50:39;6.50;;;2.57;;
52480;SDS011;38393;52.404;13.532;2024-02-26T11:58:43;4.07;;;2.50;;
52480;SDS011;38393;52.404;13.532;2024-02-26T12:04:18;6.10;;;2.30;;
52480;SDS011;38393;52.404;13.532;2024-02-26T12:06:52;4.90;;;2.60;;
52480;SDS011;38393;52.404;13.532;2024-02-26T12:09:30;4.97;;;2.57;;
52480;SDS011;38393;52.404;13.532;2024-02-26T12:12:01;3.83;;;2.40;;
52480;SDS011;38393;52.404;13.532;2024-02-26T12:14:27;4.80;;;2.57;;
52480;SDS011;38393;52.404;13.532;2024-02-26T12:16:53;5.80;;;2.40;;
52480;SDS011;38393;52.404;13.532;2024-02-26T12:19:20;4.50;;;2.40;;
52480;SDS011;38393;52.404;13.532;2024-02-26T12:21:50;5.43;;;2.70;;
52480;SDS011;38393;52.404;13.532;2024-02-26T12:24:17;5.03;;;2.40;;
52480;SDS011;38393;52.404;13.532;2024-02-26T12:26:44;4.23;;;2.40;;
52480;SDS011;38393;52.404;13.532;2024-02-26T12:29:10;5.63;;;2.50;;
52480;SDS011;38393;52.404;13.532;2024-02-26T12:31:36;6.90;;;2.30;;
52480;SDS011;38393;52.404;13.532;2024-02-26T12:34:03;6.30;;;2.27;;
52480;SDS011;38393;52.404;13.532;2024-02-26T12:36:29;4.00;;;2.37;;
52480;SDS011;38393;52.404;13.532;2024-02-26T12:38:55;4.53;;;2.40;;
52480;SDS011;38393;52.404;13.532;2024-02-26T12:41:21;4.47;;;2.27;;
52480;SDS011;38393;52.404;13.532;2024-02-26T12:43:47;4.10;;;2.37;;
52480;SDS011;38393;52.404;13.532;2024-02-26T12:46:12;8.27;;;3.00;;
52480;SDS011;38393;52.404;13.532;2024-02-26T12:48:41;4.70;;;2.60;;
52480;SDS011;38393;52.404;13.532;2024-02-26T12:51:08;4.57;;;2.47;;
52480;SDS011;38393;52.404;13.532;2024-02-26T12:53:35;4.57;;;2.27;;
52480;SDS011;38393;52.404;13.532;2024-02-26T12:56:00;5.40;;;2.50;;
52480;SDS011;38393;52.404;13.532;2024-02-26T12:58:26;4.97;;;2.37;;
52480;SDS011;38393;52.404;13.532;2024-02-26T13:00:54;5.97;;;2.47;;
52480;SDS011;38393;52.404;13.532;2024-02-26T13:03:20;5.07;;;2.60;;
52480;SDS011;38393;52.404;13.532;2024-02-26T13:05:47;5.37;;;2.83;;
52480;SDS011;38393;52.404;13.532;2024-02-26T13:08:20;6.57;;;2.90;;
52480;SDS011;38393;52.404;13.532;2024-02-26T13:10:46;6.43;;;2.57;;
52480;SDS011;38393;52.404;13.532;2024-02-26T13:13:15;6.80;;;2.70;;
52480;SDS011;38393;52.404;13.532;2024-02-26T13:15:42;6.20;;;3.07;;
52480;SDS011;38393;52.404;13.532;2024-02-26T13:18:11;5.10;;;2.63;;
52480;SDS011;38393;52.404;13.532;2024-02-26T13:20:41;9.83;;;3.50;;
52480;SDS011;38393;52.404;13.532;2024-02-26T13:23:08;6.47;;;3.00;;
52480;SDS011;38393;52.404;13.532;2024-02-26T13:25:37;8.20;;;3.40;;
52480;SDS011;38393;52.404;13.532;2024-02-26T13:28:17;4.93;;;2.80;;
52480;SDS011;38393;52.404;13.532;2024-02-26T13:30:51;9.17;;;3.00;;
52480;SDS011;38393;52.404;13.532;2024-02-26T13:33:17;5.57;;;3.00;;
52480;SDS011;38393;52.404;13.532;2024-02-26T13:35:44;4.40;;;2.70;;
52480;SDS011;38393;52.404;13.532;2024-02-26T13:38:10;6.73;;;3.13;;
52480;SDS011;38393;52.404;13.532;2024-02-26T13:40:35;7.23;;;2.83;;
52480;SDS011;38393;52.404;13.532;2024-02-26T13:43:01;6.13;;;3.00;;
52480;SDS011;38393;52.404;13.532;2024-02-26T13:45:27;5.57;;;2.87;;
52480;SDS011;38393;52.404;13.532;2024-02-26T13:47:52;6.67;;;2.73;;
52480;SDS011;38393;52.404;13.532;2024-02-26T13:50:18;8.40;;;3.37;;
52480;SDS011;38393;52.404;13.532;2024-02-26T13:52:46;7.20;;;2.87;;
52480;SDS011;38393;52.404;13.532;2024-02-26T13:55:12;7.13;;;2.70;;
52480;SDS011;38393;52.404;13.532;2024-02-26T13:57:39;7.17;;;3.37;;
52480;SDS011;38393;52.404;13.532;2024-02-26T14:00:05;8.00;;;3.47;;
52480;SDS011;38393;52.404;13.532;2024-02-26T14:02:32;6.63;;;3.30;;
52480;SDS011;38393;52.404;13.532;2024-02-26T14:05:01;6.83;;;3.40;;
52480;SDS011;38393;52.404;13.532;2024-02-26T14:07:28;8.63;;;3.93;;
52480;SDS011;38393;52.404;13.532;2024-02-26T14:09:54;6.60;;;3.10;;
52480;SDS011;38393;52.404;13.532;2024-02-26T14:12:20;7.50;;;3.37;;
52480;SDS011;38393;52.404;13.532;2024-02-26T14:14:45;8.10;;;3.27;;
52480;SDS011;38393;52.404;13.532;2024-02-26T14:17:13;10.47;;;3.67;;
52480;SDS011;38393;52.404;13.532;2024-02-26T14:19:39;7.83;;;3.13;;
52480;SDS011;38393;52.404;13.532;2024-02-26T14:22:10;8.80;;;3.80;;
52480;SDS011;38393;52.404;13.532;2024-02-26T14:24:36;7.77;;;3.80;;
52480;SDS011;38393;52.404;13.532;2024-02-26T14:27:01;7.07;;;3.43;;
52480;SDS011;38393;52.404;13.532;2024-02-26T14:29:27;12.73;;;3.80;;
52480;SDS011;38393;52.404;13.532;2024-02-26T14:31:53;6.97;;;3.10;;
52480;SDS011;38393;52.404;13.532;2024-02-26T14:34:21;7.27;;;3.10;;
52480;SDS011;38393;52.404;13.532;2024-02-26T14:36:46;9.63;;;3.40;;